createdAt,value
2022-09-04T00:02:38.197Z,16.54
2022-09-04T00:05:13.531Z,16.55
2022-09-04T00:08:03.372Z,16.56
2022-09-04T00:10:40.716Z,16.52
2022-09-04T00:13:15.477Z,16.50
2022-09-04T00:15:47.878Z,16.50
2022-09-04T00:18:27.721Z,16.45
2022-09-04T00:21:01.968Z,16.40
2022-09-04T00:23:36.172Z,16.41
2022-09-04T00:26:14.893Z,16.41
2022-09-04T00:28:51.013Z,16.37
2022-09-04T00:31:26.825Z,16.33
2022-09-04T00:34:04.562Z,16.28
2022-09-04T00:36:32.230Z,16.19
2022-09-04T00:39:09.285Z,16.13
2022-09-04T00:42:01.210Z,16.02
2022-09-04T00:44:59.363Z,15.95
2022-09-04T00:47:43.582Z,15.92
2022-09-04T00:50:29.319Z,15.92
2022-09-04T00:53:10.578Z,15.92
2022-09-04T00:55:56.950Z,15.87
2022-09-04T00:58:48.149Z,15.85
2022-09-04T01:01:23.553Z,15.81
2022-09-04T01:04:00.503Z,15.68
2022-09-04T01:06:36.020Z,15.59
2022-09-04T01:09:25.265Z,15.52
2022-09-04T01:12:07.198Z,15.43
2022-09-04T01:14:43.051Z,15.44
2022-09-04T01:17:18.858Z,15.45
2022-09-04T01:20:01.415Z,15.35
2022-09-04T01:22:49.422Z,15.31
2022-09-04T01:25:38.390Z,15.26
2022-09-04T01:28:14.225Z,15.24
2022-09-04T01:30:47.198Z,15.24
2022-09-04T01:33:24.502Z,15.18
2022-09-04T01:36:01.730Z,15.22
2022-09-04T01:38:37.864Z,15.12
2022-09-04T01:41:14.056Z,15.03
2022-09-04T01:43:43.864Z,14.94
2022-09-04T01:46:27.680Z,14.86
2022-09-04T01:49:04.461Z,14.87
2022-09-04T01:51:40.631Z,14.87
2022-09-04T01:54:26.038Z,14.85
2022-09-04T01:57:09.068Z,14.88
2022-09-04T01:59:53.891Z,14.85
2022-09-04T02:02:29.669Z,14.84
2022-09-04T02:05:06.347Z,14.80
2022-09-04T02:07:44.813Z,14.76
2022-09-04T02:10:23.429Z,14.76
2022-09-04T02:13:07.672Z,14.75
2022-09-04T02:15:44.431Z,14.65
2022-09-04T02:18:24.309Z,14.58
2022-09-04T02:20:59.509Z,14.53
2022-09-04T02:23:36.976Z,14.48
2022-09-04T02:26:12.164Z,14.50
2022-09-04T02:28:52.348Z,14.49
2022-09-04T02:31:31.262Z,14.49
2022-09-04T02:34:06.866Z,14.46
2022-09-04T02:36:41.519Z,14.39
2022-09-04T02:39:24.031Z,14.39
2022-09-04T02:42:00.490Z,14.41
2022-09-04T02:44:43.377Z,14.45
2022-09-04T02:47:24.183Z,14.49
2022-09-04T02:50:03.676Z,14.50
2022-09-04T02:52:52.312Z,14.48
2022-09-04T02:55:31.349Z,14.52
2022-09-04T02:58:11.037Z,14.52
2022-09-04T03:00:46.914Z,14.52
2022-09-04T03:03:21.553Z,14.55
2022-09-04T03:05:56.976Z,14.52
2022-09-04T03:08:34.406Z,14.55
2022-09-04T03:11:13.481Z,14.54
2022-09-04T03:13:50.584Z,14.45
2022-09-04T03:16:24.901Z,14.43
2022-09-04T03:19:08.692Z,14.42
2022-09-04T03:21:46.414Z,14.36
2022-09-04T03:24:22.595Z,14.35
2022-09-04T03:26:53.287Z,14.35
2022-09-04T03:29:30.743Z,14.34
2022-09-04T03:32:16.305Z,14.39
2022-09-04T03:34:54.266Z,14.37
2022-09-04T03:37:40.363Z,14.36
2022-09-04T03:40:19.054Z,14.38
2022-09-04T03:43:01.167Z,14.32
2022-09-04T03:45:40.050Z,14.28
2022-09-04T03:48:19.316Z,14.23
2022-09-04T03:50:58.101Z,14.17
2022-09-04T03:53:34.564Z,14.23
2022-09-04T03:56:23.994Z,14.22
2022-09-04T03:59:02.586Z,14.23
2022-09-04T04:01:41.903Z,14.23
2022-09-04T04:04:44.313Z,14.21
2022-09-04T04:07:24.929Z,14.20
2022-09-04T04:10:02.773Z,14.18
2022-09-04T04:13:03.062Z,14.17
2022-09-04T04:15:44.886Z,14.14
2022-09-04T04:18:45.243Z,14.11
2022-09-04T04:21:25.284Z,14.05
2022-09-04T04:24:18.399Z,14.03
2022-09-04T04:26:58.851Z,14.06
2022-09-04T04:29:56.010Z,14.04
2022-09-04T04:32:33.756Z,14.02
2022-09-04T04:35:23.778Z,14.02
2022-09-04T04:38:04.322Z,13.98
2022-09-04T04:40:47.826Z,13.89
2022-09-04T04:43:26.984Z,13.87
2022-09-04T04:46:03.643Z,13.86
2022-09-04T04:49:01.325Z,13.86
2022-09-04T04:51:42.871Z,13.83
2022-09-04T04:54:26.840Z,13.84
2022-09-04T04:57:04.485Z,13.83
2022-09-04T04:59:41.099Z,13.82
2022-09-04T05:02:19.241Z,13.80
2022-09-04T05:04:56.441Z,13.78
2022-09-04T05:07:31.020Z,13.81
2022-09-04T05:10:05.257Z,13.85
2022-09-04T05:12:52.349Z,13.86
2022-09-04T05:15:28.469Z,13.89
2022-09-04T05:18:00.944Z,13.89
2022-09-04T05:20:41.413Z,13.88
2022-09-04T05:23:28.965Z,13.90
2022-09-04T05:26:07.260Z,13.93
2022-09-04T05:28:48.777Z,13.95
2022-09-04T05:31:24.714Z,14.00
2022-09-04T05:34:00.932Z,14.05
2022-09-04T05:36:41.552Z,14.08
2022-09-04T05:39:20.173Z,14.11
2022-09-04T05:42:06.608Z,14.17
2022-09-04T05:44:57.728Z,14.22
2022-09-04T05:47:37.311Z,14.28
2022-09-04T05:50:47.194Z,14.33
2022-09-04T05:53:39.157Z,14.42
2022-09-04T05:56:30.913Z,14.46
2022-09-04T05:59:16.970Z,14.50
2022-09-04T06:02:18.247Z,14.58
2022-09-04T06:05:16.021Z,14.62
2022-09-04T06:07:55.662Z,14.72
2022-09-04T06:10:30.893Z,14.80
2022-09-04T06:13:20.533Z,14.82
2022-09-04T06:16:03.727Z,14.90
2022-09-04T06:18:58.728Z,14.93
2022-09-04T06:21:48.893Z,15.04
2022-09-04T06:24:33.794Z,15.10
2022-09-04T06:27:24.250Z,15.14
2022-09-04T06:30:16.496Z,15.23
2022-09-04T06:33:25.395Z,15.30
2022-09-04T06:36:20.416Z,15.36
2022-09-04T06:39:11.863Z,15.41
2022-09-04T06:41:51.524Z,15.48
2022-09-04T06:44:31.880Z,15.58
2022-09-04T06:47:11.734Z,15.61
2022-09-04T06:49:50.961Z,15.69
2022-09-04T06:52:30.214Z,15.75
2022-09-04T06:55:01.426Z,15.84
2022-09-04T06:57:55.556Z,15.85
2022-09-04T07:00:25.342Z,15.93
2022-09-04T07:03:20.784Z,16.00
2022-09-04T07:05:59.531Z,16.09
2022-09-04T07:08:40.177Z,16.17
2022-09-04T07:11:19.538Z,16.28
2022-09-04T07:13:59.869Z,16.35
2022-09-04T07:16:42.082Z,16.39
2022-09-04T07:20:06.264Z,16.48
2022-09-04T07:23:17.300Z,16.61
2022-09-04T07:25:57.855Z,16.69
2022-09-04T07:28:50.503Z,16.76
2022-09-04T07:31:23.856Z,16.81
2022-09-04T07:33:59.640Z,16.86
2022-09-04T07:36:34.853Z,16.94
2022-09-04T07:39:13.156Z,17.06
2022-09-04T07:41:49.907Z,17.12
2022-09-04T07:44:24.502Z,17.17
2022-09-04T07:46:59.368Z,17.25
2022-09-04T07:49:35.002Z,17.33
2022-09-04T07:52:11.103Z,17.39
2022-09-04T07:54:53.733Z,17.47
2022-09-04T07:57:38.844Z,17.49
2022-09-04T08:00:07.029Z,17.52
2022-09-04T08:03:14.089Z,17.55
2022-09-04T08:05:48.022Z,17.60
2022-09-04T08:08:55.846Z,17.62
2022-09-04T08:12:03.682Z,17.69
2022-09-04T08:14:52.803Z,17.74
2022-09-04T08:17:49.571Z,17.82
2022-09-04T08:20:33.435Z,17.91
2022-09-04T08:23:17.616Z,18.04
2022-09-04T08:25:55.197Z,18.12
2022-09-04T08:28:45.936Z,18.17
2022-09-04T08:31:24.023Z,18.23
2022-09-04T08:34:10.237Z,18.26
2022-09-04T08:36:46.587Z,18.30
2022-09-04T08:39:27.636Z,18.37
2022-09-04T08:42:39.454Z,18.46
2022-09-04T08:45:35.126Z,18.50
2022-09-04T08:48:46.764Z,18.60
2022-09-04T08:51:49.980Z,18.72
2022-09-04T08:54:44.676Z,18.78
2022-09-04T08:57:48.446Z,18.82
2022-09-04T09:00:17.486Z,18.90
2022-09-04T09:03:26.604Z,18.96
2022-09-04T09:06:40.207Z,19.04
2022-09-04T09:09:50.072Z,19.10
2022-09-04T09:12:41.910Z,19.22
2022-09-04T09:15:23.460Z,19.33
2022-09-04T09:18:02.095Z,19.35
2022-09-04T09:20:33.056Z,19.44
2022-09-04T09:23:20.260Z,19.47
2022-09-04T09:26:07.919Z,19.54
2022-09-04T09:29:12.103Z,19.55
2022-09-04T09:32:16.555Z,19.68
2022-09-04T09:35:20.867Z,19.84
2022-09-04T09:38:07.093Z,19.91
2022-09-04T09:41:18.045Z,19.94
2022-09-04T09:44:24.036Z,19.85
2022-09-04T09:47:16.619Z,19.91
2022-09-04T09:50:14.199Z,20.02
2022-09-04T09:53:23.896Z,20.13
2022-09-04T09:56:15.953Z,20.22
2022-09-04T09:59:28.764Z,20.30
2022-09-04T10:02:25.259Z,20.34
2022-09-04T10:05:19.254Z,20.39
2022-09-04T10:08:12.749Z,20.42
2022-09-04T10:11:25.594Z,20.50
2022-09-04T10:14:30.888Z,20.54
2022-09-04T10:17:26.246Z,20.62
2022-09-04T10:20:26.516Z,20.74
2022-09-04T10:23:27.191Z,20.84
2022-09-04T10:26:33.179Z,20.96
2022-09-04T10:29:30.432Z,21.08
2022-09-04T10:32:45.908Z,21.16
2022-09-04T10:35:24.092Z,21.14
2022-09-04T10:38:07.400Z,21.15
2022-09-04T10:40:50.637Z,21.21
2022-09-04T10:43:39.303Z,21.39
2022-09-04T10:46:10.452Z,21.49
2022-09-04T10:49:24.927Z,21.65
2022-09-04T10:52:25.931Z,21.79
2022-09-04T10:55:18.587Z,21.75
2022-09-04T10:58:05.295Z,21.79
2022-09-04T11:00:40.086Z,21.90
2022-09-04T11:03:36.130Z,21.99
2022-09-04T11:06:38.286Z,22.12
2022-09-04T11:09:33.820Z,22.11
2022-09-04T11:12:31.900Z,22.12
2022-09-04T11:15:25.272Z,22.13
2022-09-04T11:18:22.944Z,22.13
2022-09-04T11:21:33.088Z,22.16
2022-09-04T11:24:40.009Z,22.17
2022-09-04T11:27:43.486Z,22.26
2022-09-04T11:30:17.086Z,22.26
2022-09-04T11:33:20.338Z,22.34
2022-09-04T11:36:20.959Z,22.45
2022-09-04T11:39:35.026Z,22.46
2022-09-04T11:42:25.948Z,22.47
2022-09-04T11:45:37.059Z,22.46
2022-09-04T11:48:43.740Z,22.45
2022-09-04T11:51:32.030Z,22.38
2022-09-04T11:54:19.809Z,22.35
2022-09-04T11:57:16.476Z,22.34
2022-09-04T12:00:02.457Z,22.44
2022-09-04T12:03:20.445Z,22.53
2022-09-04T12:06:12.362Z,22.62
2022-09-04T12:09:08.306Z,22.57
2022-09-04T12:12:17.095Z,22.63
2022-09-04T12:15:10.113Z,22.57
2022-09-04T12:18:08.154Z,22.59
2022-09-04T12:21:07.151Z,22.55
2022-09-04T12:24:04.542Z,22.64
2022-09-04T12:27:04.728Z,22.81
2022-09-04T12:30:02.409Z,22.90
2022-09-04T12:33:08.477Z,22.93
2022-09-04T12:36:12.640Z,22.95
2022-09-04T12:38:46.929Z,22.90
2022-09-04T12:41:17.836Z,22.87
2022-09-04T12:44:00.189Z,22.82
2022-09-04T12:46:45.323Z,22.71
2022-09-04T12:49:38.474Z,22.61
2022-09-04T12:52:13.543Z,22.40
2022-09-04T12:54:43.834Z,22.19
2022-09-04T12:57:25.753Z,21.94
2022-09-04T13:00:05.997Z,21.67
2022-09-04T13:02:50.065Z,21.47
2022-09-04T13:05:32.689Z,21.23
2022-09-04T13:08:12.264Z,21.03
2022-09-04T13:10:52.721Z,20.96
2022-09-04T13:13:28.824Z,20.82
2022-09-04T13:16:01.869Z,20.74
2022-09-04T13:18:51.311Z,20.63
2022-09-04T13:21:27.623Z,20.51
2022-09-04T13:24:12.530Z,20.44
2022-09-04T13:26:46.048Z,20.42
2022-09-04T13:29:25.535Z,20.30
2022-09-04T13:32:04.485Z,20.22
2022-09-04T13:34:48.614Z,20.13
2022-09-04T13:37:24.994Z,20.15
2022-09-04T13:40:21.965Z,20.28
2022-09-04T13:43:26.037Z,20.37
2022-09-04T13:45:54.227Z,20.51
2022-09-04T13:48:33.701Z,20.54
2022-09-04T13:51:13.499Z,20.68
2022-09-04T13:53:58.177Z,20.81
2022-09-04T13:56:31.799Z,20.94
2022-09-04T13:59:02.710Z,21.02
2022-09-04T14:01:33.653Z,21.10
2022-09-04T14:04:05.626Z,21.16
2022-09-04T14:06:37.633Z,21.28
2022-09-04T14:09:06.342Z,21.37
2022-09-04T14:11:49.308Z,21.34
2022-09-04T14:14:58.613Z,21.15
2022-09-04T14:17:35.607Z,20.94
2022-09-04T14:20:12.655Z,20.87
2022-09-04T14:22:49.454Z,20.96
2022-09-04T14:25:30.356Z,20.96
2022-09-04T14:28:02.042Z,20.98
2022-09-04T14:30:35.389Z,21.02
2022-09-04T14:33:24.407Z,21.03
2022-09-04T14:36:07.874Z,21.05
2022-09-04T14:39:01.018Z,21.10
2022-09-04T14:41:46.359Z,21.13
2022-09-04T14:44:27.110Z,21.08
2022-09-04T14:47:03.901Z,20.99
2022-09-04T14:49:32.778Z,20.92
2022-09-04T14:52:10.148Z,20.84
2022-09-04T14:54:40.783Z,20.71
2022-09-04T14:57:18.223Z,20.66
2022-09-04T14:59:50.985Z,20.60
2022-09-04T15:02:26.605Z,20.61
2022-09-04T15:05:01.659Z,20.61
2022-09-04T15:07:50.231Z,20.67
2022-09-04T15:10:23.485Z,20.66
2022-09-04T15:12:56.112Z,20.68
2022-09-04T15:15:30.096Z,20.69
2022-09-04T15:18:10.621Z,20.69
2022-09-04T15:20:45.942Z,20.69
2022-09-04T15:23:20.233Z,20.69
2022-09-04T15:25:59.786Z,20.62
2022-09-04T15:28:32.304Z,20.58
2022-09-04T15:31:10.921Z,20.56
2022-09-04T15:33:41.543Z,20.54
2022-09-04T15:36:15.156Z,20.56
2022-09-04T15:38:49.480Z,20.63
2022-09-04T15:41:27.191Z,20.66
2022-09-04T15:44:00.906Z,20.67
2022-09-04T15:46:41.558Z,20.73
2022-09-04T15:49:33.908Z,20.76
2022-09-04T15:52:18.955Z,20.83
2022-09-04T15:55:09.955Z,20.85
2022-09-04T15:57:51.988Z,20.88
2022-09-04T16:00:25.742Z,20.85
2022-09-04T16:03:00.668Z,20.78
2022-09-04T16:05:39.064Z,20.75
2022-09-04T16:08:22.287Z,20.71
2022-09-04T16:10:56.523Z,20.64
2022-09-04T16:13:46.077Z,20.58
2022-09-04T16:16:19.409Z,20.54
2022-09-04T16:19:01.300Z,20.49
2022-09-04T16:21:39.794Z,20.46
2022-09-04T16:24:13.878Z,20.47
2022-09-04T16:26:41.220Z,20.44
2022-09-04T16:29:26.261Z,20.42
2022-09-04T16:31:55.905Z,20.38
2022-09-04T16:34:27.750Z,20.38
2022-09-04T16:36:58.966Z,20.37
2022-09-04T16:39:31.858Z,20.34
2022-09-04T16:42:09.820Z,20.33
2022-09-04T16:44:43.606Z,20.31
2022-09-04T16:47:19.810Z,20.23
2022-09-04T16:49:56.916Z,20.19
2022-09-04T16:52:58.607Z,20.13
2022-09-04T16:55:46.719Z,20.05
2022-09-04T16:58:21.270Z,20.00
2022-09-04T17:01:13.762Z,19.95
2022-09-04T17:04:12.937Z,19.93
2022-09-04T17:06:48.930Z,19.87
2022-09-04T17:09:23.037Z,19.85
2022-09-04T17:11:55.899Z,19.81
2022-09-04T17:14:31.871Z,19.78
2022-09-04T17:17:30.841Z,19.69
2022-09-04T17:20:02.384Z,19.56
2022-09-04T17:28:04.877Z,19.45
2022-09-04T17:29:10.938Z,19.36
2022-09-04T17:29:15.426Z,19.30
2022-09-04T17:31:33.734Z,19.22
2022-09-04T17:40:06.225Z,19.21
2022-09-04T17:40:48.836Z,19.17
2022-09-04T17:40:53.995Z,19.08
2022-09-04T17:42:57.099Z,19.01
2022-09-04T17:45:51.293Z,18.92
2022-09-04T17:48:22.238Z,18.84
2022-09-04T17:50:54.821Z,18.83
2022-09-04T17:53:34.135Z,18.76
2022-09-04T17:56:07.948Z,18.68
2022-09-04T17:58:43.666Z,18.58
2022-09-04T18:01:17.988Z,18.52
2022-09-04T18:04:20.025Z,18.46
2022-09-04T18:06:52.331Z,18.37
2022-09-04T18:09:27.602Z,18.32
2022-09-04T18:12:04.508Z,18.24
2022-09-04T18:14:40.485Z,18.15
2022-09-04T18:17:17.797Z,18.11
2022-09-04T18:19:47.100Z,18.11
2022-09-04T18:22:33.718Z,18.10
2022-09-04T18:25:17.118Z,18.05
2022-09-04T18:28:11.600Z,18.00
2022-09-04T18:37:05.561Z,17.91
2022-09-04T18:37:18.211Z,17.69
2022-09-04T18:37:25.321Z,17.76
2022-09-04T18:39:40.101Z,17.63
2022-09-04T18:50:20.218Z,17.61
2022-09-04T18:50:22.959Z,17.58
2022-09-04T18:50:43.932Z,17.54
2022-09-04T18:51:18.355Z,17.47
2022-09-04T18:53:48.931Z,17.42
2022-09-04T18:56:25.098Z,17.37
2022-09-04T18:59:01.261Z,17.36
2022-09-04T19:01:40.869Z,17.31
2022-09-04T19:04:38.376Z,17.21
2022-09-04T19:07:09.975Z,17.13
2022-09-04T19:09:58.194Z,17.05
2022-09-04T19:12:47.707Z,17.04
2022-09-04T19:15:37.678Z,17.02
2022-09-04T19:18:16.058Z,17.02
2022-09-04T19:20:49.084Z,17.00
2022-09-04T19:23:27.347Z,16.88
2022-09-04T19:26:00.180Z,16.84
2022-09-04T19:28:52.902Z,16.83
2022-09-04T19:31:30.782Z,16.80
2022-09-04T19:34:04.470Z,16.74
2022-09-04T19:36:39.506Z,16.72
2022-09-04T19:45:53.509Z,16.67
2022-09-04T19:46:00.850Z,16.64
2022-09-04T19:46:17.656Z,16.60
2022-09-04T19:48:16.380Z,16.50
2022-09-04T19:53:23.109Z,16.45
2022-09-04T19:53:49.185Z,16.45
2022-09-04T19:56:29.095Z,16.37
2022-09-04T19:59:04.214Z,16.38
2022-09-04T20:01:43.927Z,16.33
2022-09-04T20:04:21.839Z,16.32
2022-09-04T20:06:53.876Z,16.25
2022-09-04T20:09:27.901Z,16.23
2022-09-04T20:11:59.660Z,16.23
2022-09-04T20:14:31.684Z,16.19
2022-09-04T20:17:17.619Z,16.10
2022-09-04T20:19:48.694Z,16.04
2022-09-04T20:22:30.729Z,16.00
2022-09-04T20:25:13.640Z,15.99
2022-09-04T20:27:44.495Z,15.98
2022-09-04T20:30:17.848Z,15.97
2022-09-04T20:32:53.101Z,15.88
2022-09-04T20:35:33.368Z,15.88
2022-09-04T20:38:06.154Z,15.87
2022-09-04T20:40:44.659Z,15.86
2022-09-04T20:43:24.656Z,15.87
2022-09-04T20:49:12.178Z,15.84
2022-09-04T20:52:52.242Z,15.77
2022-09-04T20:52:53.307Z,15.68
2022-09-04T20:55:07.686Z,15.63
2022-09-04T21:01:35.126Z,15.67
2022-09-04T21:03:19.488Z,15.66
2022-09-04T21:03:57.093Z,15.67
2022-09-04T21:06:33.598Z,15.61
2022-09-04T21:09:18.572Z,15.60
2022-09-04T21:11:48.967Z,15.60
2022-09-04T21:14:21.585Z,15.61
2022-09-04T21:17:34.284Z,15.55
2022-09-04T21:20:48.618Z,15.58
2022-09-04T21:24:03.036Z,15.60
2022-09-04T21:26:48.976Z,15.58
2022-09-04T21:29:37.406Z,15.57
2022-09-04T21:32:39.510Z,15.44
2022-09-04T21:35:12.801Z,15.40
2022-09-04T21:37:50.886Z,15.45
2022-09-04T21:41:05.740Z,15.41
2022-09-04T21:44:22.385Z,15.39
2022-09-04T21:47:08.521Z,15.32
2022-09-04T21:50:00.942Z,15.24
2022-09-04T21:52:55.989Z,15.18
2022-09-04T21:56:33.287Z,15.11
2022-09-04T22:02:43.088Z,15.07
2022-09-04T22:04:36.113Z,14.99
2022-09-04T22:10:39.891Z,14.88
2022-09-04T22:13:30.856Z,14.86
2022-09-04T22:13:48.023Z,14.87
2022-09-04T22:16:06.750Z,14.85
2022-09-04T22:19:11.500Z,14.84
2022-09-04T22:22:03.482Z,14.85
2022-09-04T22:25:00.953Z,14.81
2022-09-04T22:28:11.033Z,14.80
2022-09-04T22:30:58.561Z,14.81
2022-09-04T22:34:15.539Z,14.80
2022-09-04T22:37:25.385Z,14.77
2022-09-04T22:40:25.125Z,14.73
2022-09-04T22:43:10.465Z,14.70
2022-09-04T22:46:06.210Z,14.63
2022-09-04T22:49:12.411Z,14.62
2022-09-04T22:52:13.914Z,14.60
2022-09-04T22:55:13.078Z,14.57
2022-09-04T22:58:08.493Z,14.55
2022-09-04T23:00:58.558Z,14.54
2022-09-04T23:03:41.940Z,14.50
2022-09-04T23:08:34.565Z,14.40
2022-09-04T23:13:46.718Z,14.40
2022-09-04T23:15:43.444Z,14.38
2022-09-04T23:22:36.800Z,14.36
2022-09-04T23:26:35.820Z,14.36
2022-09-04T23:26:50.539Z,14.41
2022-09-04T23:27:50.934Z,14.40
2022-09-04T23:30:25.148Z,14.34
2022-09-04T23:33:38.972Z,14.29
2022-09-04T23:36:55.963Z,14.28
2022-09-04T23:39:46.818Z,14.14
2022-09-04T23:42:30.671Z,14.12
2022-09-04T23:45:21.494Z,14.06
2022-09-04T23:48:16.653Z,14.07
2022-09-04T23:50:54.379Z,14.04
2022-09-04T23:53:31.532Z,13.97
2022-09-04T23:56:24.689Z,13.92
2022-09-04T23:59:05.113Z,13.93
